Time,TemperatureF,DewpointF,PressureIn,WindDirection,WindDirectionDegrees,WindSpeedMPH,WindSpeedGustMPH,Humidity,HourlyPrecipIn,Conditions,Clouds,dailyrainin,SolarRadiationWatts/m^2,SoftwareType,DateUTC
2013-05-28 00:02:00,80.1,32.7,-100.00,SE,128,6.0,12.0,18,0.00,,,0.00,0.0,meteohub,2013-05-28 04:02:00,
2013-05-28 00:07:00,80.1,32.7,-100.00,SW,214,6.0,12.0,18,0.00,,,0.00,0.0,meteohub,2013-05-28 04:07:00,
2013-05-28 00:12:00,80.2,32.9,-100.00,South,191,10.0,12.0,18,0.00,,,0.00,0.0,meteohub,2013-05-28 04:12:00,
2013-05-28 00:17:00,80.2,32.9,-100.00,South,185,10.0,12.0,18,0.00,,,0.00,0.0,meteohub,2013-05-28 04:17:00,
2013-05-28 00:22:00,80.2,30.0,-100.00,South,174,9.0,12.0,16,0.00,,,0.00,0.0,meteohub,2013-05-28 04:22:00,
2013-05-28 00:27:00,80.2,30.0,-100.00,SW,232,6.0,14.0,16,0.00,,,0.00,0.0,meteohub,2013-05-28 04:27:00,
2013-05-28 00:32:00,80.1,32.7,-100.00,South,176,11.0,14.0,18,0.00,,,0.00,0.0,meteohub,2013-05-28 04:32:00,
2013-05-28 00:37:00,80.2,34.2,-100.00,SSE,161,5.0,14.0,19,0.00,,,0.00,0.0,meteohub,2013-05-28 04:37:00,
2013-05-28 00:42:00,80.1,32.7,-100.00,SSW,213,6.0,14.0,18,0.00,,,0.00,0.0,meteohub,2013-05-28 04:42:00,
2013-05-28 00:47:00,80.1,32.7,-100.00,WSW,237,6.0,14.0,18,0.00,,,0.00,0.0,meteohub,2013-05-28 04:47:00,
2013-05-28 00:52:00,80.1,29.8,-100.00,South,172,4.0,14.0,16,0.00,,,0.00,0.0,meteohub,2013-05-28 04:52:00,
2013-05-28 00:57:00,80.2,31.5,-100.00,SW,218,11.0,14.0,17,0.00,,,0.00,0.0,meteohub,2013-05-28 04:57:00,
2013-05-28 01:02:00,80.1,32.7,-100.00,SSW,195,7.0,14.0,18,0.00,,,0.00,0.0,meteohub,2013-05-28 05:02:00,
2013-05-28 01:07:00,80.1,32.7,-100.00,SW,232,6.0,14.0,18,0.00,,,0.00,0.0,meteohub,2013-05-28 05:07:00,
2013-05-28 01:12:00,80.1,35.4,-100.00,SW,218,10.0,14.0,20,0.00,,,0.00,0.0,meteohub,2013-05-28 05:12:00,
2013-05-28 01:17:00,80.1,34.2,-100.00,SSW,210,11.0,14.0,19,0.00,,,0.00,0.0,meteohub,2013-05-28 05:17:00,
2013-05-28 01:22:00,79.9,32.5,-100.00,SW,225,9.0,14.0,18,0.00,,,0.00,0.0,meteohub,2013-05-28 05:22:00,
2013-05-28 01:27:00,79.9,32.5,-100.00,SSW,203,13.0,14.0,18,0.00,,,0.00,0.0,meteohub,2013-05-28 05:27:00,
2013-05-28 01:32:00,80.1,31.3,-100.00,SE,136,12.0,14.0,17,0.00,,,0.00,0.0,meteohub,2013-05-28 05:32:00,
2013-05-28 01:37:00,79.9,31.1,-100.00,South,178,5.0,14.0,17,0.00,,,0.00,0.0,meteohub,2013-05-28 05:37:00,
2013-05-28 01:42:00,79.9,29.7,-100.00,South,188,5.0,14.0,16,0.00,,,0.00,0.0,meteohub,2013-05-28 05:42:00,
2013-05-28 01:47:00,79.7,31.1,-100.00,SSE,164,6.0,14.0,17,0.00,,,0.00,0.0,meteohub,2013-05-28 05:47:00,
2013-05-28 01:52:00,79.7,32.4,-100.00,SSE,163,5.0,14.0,18,0.00,,,0.00,0.0,meteohub,2013-05-28 05:52:00,
2013-05-28 01:57:00,79.9,31.1,-100.00,South,172,4.0,14.0,17,0.00,,,0.00,0.0,meteohub,2013-05-28 05:57:00,
2013-05-28 02:02:00,80.1,29.8,-100.00,WSW,254,9.0,14.0,16,0.00,,,0.00,0.0,meteohub,2013-05-28 06:02:00,
2013-05-28 02:07:00,79.5,26.1,-100.00,SW,233,5.0,14.0,14,0.00,,,0.00,0.0,meteohub,2013-05-28 06:07:00,
2013-05-28 02:12:00,79.2,25.9,-100.00,West,265,3.0,14.0,14,0.00,,,0.00,0.0,meteohub,2013-05-28 06:12:00,
2013-05-28 02:17:00,79.2,27.5,-100.00,South,175,7.0,14.0,15,0.00,,,0.00,0.0,meteohub,2013-05-28 06:17:00,
2013-05-28 02:22:00,79.5,32.4,-100.00,WSW,257,11.0,14.0,18,0.00,,,0.00,0.0,meteohub,2013-05-28 06:22:00,
2013-05-28 02:27:00,79.7,32.4,-100.00,SE,136,7.0,13.0,18,0.00,,,0.00,0.0,meteohub,2013-05-28 06:27:00,
2013-05-28 02:32:00,79.9,32.5,-100.00,WSW,242,7.0,13.0,18,0.00,,,0.00,0.0,meteohub,2013-05-28 06:32:00,
2013-05-28 02:37:00,80.1,34.2,-100.00,SSE,148,7.0,13.0,19,0.00,,,0.00,0.0,meteohub,2013-05-28 06:37:00,
2013-05-28 02:42:00,79.9,32.5,-100.00,SSW,198,3.0,13.0,18,0.00,,,0.00,0.0,meteohub,2013-05-28 06:42:00,
2013-05-28 02:47:00,79.9,31.1,-100.00,SSW,210,4.0,13.0,17,0.00,,,0.00,0.0,meteohub,2013-05-28 06:47:00,
2013-05-28 02:52:00,79.9,29.7,-100.00,SSW,210,3.0,13.0,16,0.00,,,0.00,0.0,meteohub,2013-05-28 06:52:00,
2013-05-28 02:57:00,79.7,29.5,-100.00,SSE,168,3.0,13.0,16,0.00,,,0.00,0.0,meteohub,2013-05-28 06:57:00,
2013-05-28 03:02:00,79.7,29.5,-100.00,South,191,6.0,15.0,16,0.00,,,0.00,0.0,meteohub,2013-05-28 07:02:00,
2013-05-28 03:07:00,79.7,31.1,-100.00,SW,219,11.0,15.0,17,0.00,,,0.00,0.0,meteohub,2013-05-28 07:07:00,
2013-05-28 03:12:00,80.1,32.7,-100.00,SSE,160,5.0,15.0,18,0.00,,,0.00,0.0,meteohub,2013-05-28 07:12:00,
2013-05-28 03:22:00,80.1,29.8,-100.00,SE,137,9.0,15.0,16,0.00,,,0.00,0.0,meteohub,2013-05-28 07:22:00,
2013-05-28 03:27:00,79.9,29.7,-100.00,South,176,7.0,15.0,16,0.00,,,0.00,0.0,meteohub,2013-05-28 07:27:00,
2013-05-28 03:32:00,79.9,28.0,-100.00,South,184,9.0,15.0,15,0.00,,,0.00,0.0,meteohub,2013-05-28 07:32:00,
2013-05-28 03:37:00,80.1,28.2,-100.00,SW,215,5.0,14.0,15,0.00,,,0.00,0.0,meteohub,2013-05-28 07:37:00,
2013-05-28 03:42:00,80.1,29.8,-100.00,SSW,198,4.0,14.0,16,0.00,,,0.00,0.0,meteohub,2013-05-28 07:42:00,
2013-05-28 03:47:00,79.9,28.0,-100.00,SSW,197,12.0,14.0,15,0.00,,,0.00,0.0,meteohub,2013-05-28 07:47:00,
2013-05-28 03:52:00,79.9,28.0,-100.00,SSW,206,12.0,14.0,15,0.00,,,0.00,0.0,meteohub,2013-05-28 07:52:00,
2013-05-28 03:57:00,79.9,29.7,-100.00,SSE,159,9.0,14.0,16,0.00,,,0.00,0.0,meteohub,2013-05-28 07:57:00,
2013-05-28 04:02:00,79.9,29.7,-100.00,SSE,150,5.0,14.0,16,0.00,,,0.00,0.0,meteohub,2013-05-28 08:02:00,
2013-05-28 04:07:00,79.9,29.7,-100.00,SSW,192,8.0,14.0,16,0.00,,,0.00,0.0,meteohub,2013-05-28 08:07:00,
2013-05-28 04:12:00,79.9,31.1,-100.00,SW,219,10.0,14.0,17,0.00,,,0.00,0.0,meteohub,2013-05-28 08:12:00,
2013-05-28 04:17:00,80.1,32.7,-100.00,SSW,211,9.0,14.0,18,0.00,,,0.00,0.0,meteohub,2013-05-28 08:17:00,
2013-05-28 04:22:00,79.9,31.1,-100.00,South,191,8.0,14.0,17,0.00,,,0.00,0.0,meteohub,2013-05-28 08:22:00,
2013-05-28 04:27:00,79.9,31.1,-100.00,SW,217,7.0,14.0,17,0.00,,,0.00,0.0,meteohub,2013-05-28 08:27:00,
2013-05-28 04:32:00,79.9,29.7,-100.00,South,189,8.0,14.0,16,0.00,,,0.00,0.0,meteohub,2013-05-28 08:32:00,
2013-05-28 04:37:00,79.7,29.5,-100.00,West,279,5.0,14.0,16,0.00,,,0.00,0.0,meteohub,2013-05-28 08:37:00,
2013-05-28 04:42:00,79.9,28.0,-100.00,South,184,10.0,14.0,15,0.00,,,0.00,0.0,meteohub,2013-05-28 08:42:00,
2013-05-28 04:47:00,79.9,28.0,-100.00,South,173,7.0,15.0,15,0.00,,,0.00,0.0,meteohub,2013-05-28 08:47:00,
2013-05-28 04:52:00,79.9,29.7,-100.00,SE,139,7.0,15.0,16,0.00,,,0.00,0.0,meteohub,2013-05-28 08:52:00,
2013-05-28 04:57:00,79.9,28.0,-100.00,SSE,161,10.0,15.0,15,0.00,,,0.00,0.0,meteohub,2013-05-28 08:57:00,
2013-05-28 05:02:00,79.9,28.0,-100.00,SSW,199,4.0,15.0,15,0.00,,,0.00,0.0,meteohub,2013-05-28 09:02:00,
2013-05-28 05:07:00,79.9,28.0,-100.00,East,84,6.0,15.0,15,0.00,,,0.00,0.0,meteohub,2013-05-28 09:07:00,
2013-05-28 05:12:00,79.9,28.0,-100.00,South,180,6.0,15.0,15,0.00,,,0.00,0.0,meteohub,2013-05-28 09:12:00,
2013-05-28 05:17:00,79.9,28.0,-100.00,SW,224,7.0,15.0,15,0.00,,,0.00,0.0,meteohub,2013-05-28 09:17:00,
2013-05-28 05:22:00,79.9,28.0,-100.00,WSW,242,4.0,16.0,15,0.00,,,0.00,0.0,meteohub,2013-05-28 09:22:00,
2013-05-28 05:27:00,79.9,28.0,-100.00,ESE,119,9.0,16.0,15,0.00,,,0.00,0.0,meteohub,2013-05-28 09:27:00,
2013-05-28 05:32:00,79.9,26.4,-100.00,ESE,103,13.0,16.0,14,0.00,,,0.00,0.0,meteohub,2013-05-28 09:32:00,
2013-05-28 05:37:00,79.9,28.0,-100.00,SSW,205,6.0,16.0,15,0.00,,,0.00,0.0,meteohub,2013-05-28 09:37:00,
2013-05-28 05:42:00,80.1,28.2,-100.00,ESE,121,10.0,16.0,15,0.00,,,0.00,0.0,meteohub,2013-05-28 09:42:00,
2013-05-28 05:47:00,79.9,29.7,-100.00,SW,214,13.0,16.0,16,0.00,,,0.00,0.0,meteohub,2013-05-28 09:47:00,
2013-05-28 05:52:00,79.7,28.0,-100.00,SSW,207,12.0,16.0,15,0.00,,,0.00,0.0,meteohub,2013-05-28 09:52:00,
2013-05-28 05:57:00,79.7,26.2,-100.00,South,171,11.0,16.0,14,0.00,,,0.00,0.0,meteohub,2013-05-28 09:57:00,
2013-05-28 06:02:00,79.7,26.2,-100.00,SSW,196,6.0,17.0,14,0.00,,,0.00,0.0,meteohub,2013-05-28 10:02:00,
2013-05-28 06:07:00,79.7,26.2,-100.00,South,173,8.0,17.0,14,0.00,,,0.00,0.0,meteohub,2013-05-28 10:07:00,
2013-05-28 06:12:00,79.5,26.1,-100.00,South,177,7.0,17.0,14,0.00,,,0.00,0.0,meteohub,2013-05-28 10:12:00,
2013-05-28 06:17:00,79.7,26.2,-100.00,SSW,209,10.0,17.0,14,0.00,,,0.00,0.0,meteohub,2013-05-28 10:17:00,
2013-05-28 06:22:00,79.7,28.0,-100.00,SW,234,5.0,17.0,15,0.00,,,0.00,0.0,meteohub,2013-05-28 10:22:00,
2013-05-28 06:27:00,79.7,26.2,-100.00,SSW,206,11.0,17.0,14,0.00,,,0.00,0.0,meteohub,2013-05-28 10:27:00,
2013-05-28 06:32:00,79.7,26.2,-100.00,South,188,10.0,17.0,14,0.00,,,0.00,5.0,meteohub,2013-05-28 10:32:00,
2013-05-28 06:37:00,79.7,26.2,-100.00,South,180,7.0,17.0,14,0.00,,,0.00,11.0,meteohub,2013-05-28 10:37:00,
2013-05-28 06:42:00,80.1,26.6,-100.00,SW,218,6.0,17.0,14,0.00,,,0.00,18.0,meteohub,2013-05-28 10:42:00,
2013-05-28 06:47:00,80.1,28.2,-100.00,SE,131,7.0,17.0,15,0.00,,,0.00,25.0,meteohub,2013-05-28 10:47:00,
2013-05-28 06:52:00,79.9,28.0,-100.00,SSE,159,6.0,17.0,15,0.00,,,0.00,32.0,meteohub,2013-05-28 10:52:00,
2013-05-28 06:57:00,80.1,26.6,-100.00,ESE,118,6.0,17.0,14,0.00,,,0.00,42.0,meteohub,2013-05-28 10:57:00,
2013-05-28 07:02:00,80.1,26.6,-100.00,SSW,199,4.0,17.0,14,0.00,,,0.00,49.0,meteohub,2013-05-28 11:02:00,
2013-05-28 07:07:00,80.1,26.6,-100.00,SE,142,10.0,17.0,14,0.00,,,0.00,58.0,meteohub,2013-05-28 11:07:00,
2013-05-28 07:17:00,80.2,26.8,-100.00,South,187,5.0,17.0,14,0.00,,,0.00,88.0,meteohub,2013-05-28 11:17:00,
2013-05-28 07:22:00,80.2,26.8,-100.00,SSW,197,7.0,17.0,14,0.00,,,0.00,84.0,meteohub,2013-05-28 11:22:00,
2013-05-28 07:27:00,80.4,26.8,-100.00,SE,134,9.0,17.0,14,0.00,,,0.00,93.0,meteohub,2013-05-28 11:27:00,
2013-05-28 07:37:00,80.4,28.6,-100.00,South,182,6.0,13.0,15,0.00,,,0.00,121.0,meteohub,2013-05-28 11:37:00,
2013-05-28 07:42:00,80.6,28.8,-100.00,SE,141,12.0,13.0,15,0.00,,,0.00,181.0,meteohub,2013-05-28 11:42:00,
2013-05-28 07:47:00,80.8,28.8,-100.00,WSW,247,6.0,13.0,15,0.00,,,0.00,132.0,meteohub,2013-05-28 11:47:00,
2013-05-28 07:52:00,80.8,28.8,-100.00,South,188,11.0,13.0,15,0.00,,,0.00,121.0,meteohub,2013-05-28 11:52:00,
2013-05-28 07:57:00,81.1,29.1,-100.00,SSW,211,8.0,13.0,15,0.00,,,0.00,183.0,meteohub,2013-05-28 11:57:00,
2013-05-28 08:02:00,81.3,30.9,-100.00,SSE,162,10.0,13.0,16,0.00,,,0.00,125.0,meteohub,2013-05-28 12:02:00,
2013-05-28 08:07:00,81.1,29.1,-100.00,South,187,9.0,14.0,15,0.00,,,0.00,149.0,meteohub,2013-05-28 12:07:00,
2013-05-28 08:12:00,81.1,29.1,-100.00,ESE,111,5.0,14.0,15,0.00,,,0.00,190.0,meteohub,2013-05-28 12:12:00,
2013-05-28 08:17:00,81.1,29.1,-100.00,East,90,10.0,14.0,15,0.00,,,0.00,200.0,meteohub,2013-05-28 12:17:00,
2013-05-28 08:22:00,81.7,29.5,-100.00,SSW,203,10.0,14.0,15,0.00,,,0.00,197.0,meteohub,2013-05-28 12:22:00,
2013-05-28 08:27:00,81.7,31.1,-100.00,South,184,5.0,14.0,16,0.00,,,0.00,192.0,meteohub,2013-05-28 12:27:00,
2013-05-28 08:32:00,81.7,31.1,-100.00,SSE,165,6.0,14.0,16,0.00,,,0.00,248.0,meteohub,2013-05-28 12:32:00,
2013-05-28 08:37:00,81.9,31.3,-100.00,SSW,209,9.0,14.0,16,0.00,,,0.00,271.0,meteohub,2013-05-28 12:37:00,
2013-05-28 08:42:00,81.9,31.3,-100.00,SE,144,9.0,16.0,16,0.00,,,0.00,243.0,meteohub,2013-05-28 12:42:00,
2013-05-28 08:47:00,82.0,32.9,-100.00,South,175,6.0,16.0,17,0.00,,,0.00,295.0,meteohub,2013-05-28 12:47:00,
2013-05-28 08:52:00,82.0,31.5,-100.00,South,190,9.0,16.0,16,0.00,,,0.00,302.0,meteohub,2013-05-28 12:52:00,
2013-05-28 08:57:00,82.0,31.5,-100.00,SSE,150,10.0,16.0,16,0.00,,,0.00,290.0,meteohub,2013-05-28 12:57:00,
2013-05-28 09:02:00,82.0,31.5,-100.00,SSW,200,6.0,16.0,16,0.00,,,0.00,287.0,meteohub,2013-05-28 13:02:00,
2013-05-28 09:07:00,82.0,31.5,-100.00,South,187,6.0,16.0,16,0.00,,,0.00,371.0,meteohub,2013-05-28 13:07:00,
2013-05-28 09:12:00,82.2,33.1,-100.00,SSW,210,7.0,16.0,17,0.00,,,0.00,420.0,meteohub,2013-05-28 13:12:00,
2013-05-28 09:17:00,82.2,33.1,-100.00,ESE,107,7.0,18.0,17,0.00,,,0.00,276.0,meteohub,2013-05-28 13:17:00,
2013-05-28 09:22:00,82.2,33.1,-100.00,South,180,7.0,18.0,17,0.00,,,0.00,297.0,meteohub,2013-05-28 13:22:00,
2013-05-28 09:27:00,82.4,33.3,-100.00,SSW,207,7.0,18.0,17,0.00,,,0.00,425.0,meteohub,2013-05-28 13:27:00,
2013-05-28 09:32:00,82.6,33.4,-100.00,SW,232,8.0,18.0,17,0.00,,,0.00,408.0,meteohub,2013-05-28 13:32:00,
2013-05-28 09:37:00,82.9,33.6,-100.00,SSW,193,7.0,18.0,17,0.00,,,0.00,376.0,meteohub,2013-05-28 13:37:00,
2013-05-28 09:42:00,82.6,34.7,-100.00,SSE,161,6.0,18.0,18,0.00,,,0.00,374.0,meteohub,2013-05-28 13:42:00,
2013-05-28 09:47:00,82.6,34.7,-100.00,SSE,149,6.0,18.0,18,0.00,,,0.00,410.0,meteohub,2013-05-28 13:47:00,
2013-05-28 09:52:00,82.9,33.6,-100.00,SSW,211,10.0,16.0,17,0.00,,,0.00,295.0,meteohub,2013-05-28 13:52:00,
2013-05-28 09:57:00,82.9,35.1,-100.00,SE,126,11.0,16.0,18,0.00,,,0.00,378.0,meteohub,2013-05-28 13:57:00,
2013-05-28 10:02:00,82.8,33.4,-100.00,SSW,198,7.0,16.0,17,0.00,,,0.00,313.0,meteohub,2013-05-28 14:02:00,
2013-05-28 10:07:00,82.8,33.4,-100.00,SSE,159,4.0,16.0,17,0.00,,,0.00,330.0,meteohub,2013-05-28 14:07:00,
2013-05-28 10:12:00,82.9,32.2,-100.00,ESE,117,6.0,16.0,16,0.00,,,0.00,362.0,meteohub,2013-05-28 14:12:00,
2013-05-28 10:17:00,83.1,35.2,-100.00,SSW,192,7.0,16.0,18,0.00,,,0.00,306.0,meteohub,2013-05-28 14:17:00,
2013-05-28 10:22:00,82.9,33.6,-100.00,South,188,6.0,16.0,17,0.00,,,0.00,380.0,meteohub,2013-05-28 14:22:00,
2013-05-28 10:27:00,82.9,35.1,-100.00,SSW,196,19.0,19.0,18,0.00,,,0.00,90.0,meteohub,2013-05-28 14:27:00,
2013-05-28 10:32:00,81.7,40.3,-100.00,South,183,6.0,18.0,23,0.00,,,0.00,69.0,meteohub,2013-05-28 14:32:00,
2013-05-28 10:37:00,81.0,30.6,-100.00,SW,217,12.0,18.0,16,0.00,,,0.00,130.0,meteohub,2013-05-28 14:37:00,
2013-05-28 10:42:00,80.1,26.6,-100.00,ESE,123,6.0,18.0,14,0.00,,,0.00,190.0,meteohub,2013-05-28 14:42:00,
2013-05-28 10:47:00,79.9,24.6,-100.00,South,180,5.0,19.0,13,0.00,,,0.00,232.0,meteohub,2013-05-28 14:47:00,
2013-05-28 10:52:00,80.1,24.8,-100.00,SSE,165,5.0,19.0,13,0.00,,,0.00,229.0,meteohub,2013-05-28 14:52:00,
2013-05-28 10:57:00,80.4,26.8,-100.00,SE,145,10.0,19.0,14,0.00,,,0.00,227.0,meteohub,2013-05-28 14:57:00,
2013-05-28 11:02:00,80.2,26.8,-100.00,SSE,163,13.0,19.0,14,0.00,,,0.00,211.0,meteohub,2013-05-28 15:02:00,
2013-05-28 11:07:00,80.1,28.2,-100.00,SSE,158,14.0,19.0,15,0.00,,,0.00,279.0,meteohub,2013-05-28 15:07:00,
2013-05-28 11:17:00,80.4,30.2,-100.00,South,179,4.0,18.0,16,0.00,,,0.00,295.0,meteohub,2013-05-28 15:17:00,
2013-05-28 11:22:00,80.2,32.9,-100.00,SSE,160,7.0,18.0,18,0.00,,,0.00,304.0,meteohub,2013-05-28 15:22:00,
2013-05-28 11:27:00,80.4,34.3,-100.00,SSW,207,8.0,18.0,19,0.00,,,0.00,316.0,meteohub,2013-05-28 15:27:00,
2013-05-28 11:37:00,81.7,37.9,-100.00,SSW,198,9.0,19.0,21,0.00,,,0.00,336.0,meteohub,2013-05-28 15:37:00,
2013-05-28 11:47:00,81.9,39.2,-100.00,SE,127,10.0,19.0,22,0.00,,,0.00,396.0,meteohub,2013-05-28 15:47:00,
2013-05-28 11:52:00,82.4,39.7,-100.00,SE,140,2.0,19.0,22,0.00,,,0.00,448.0,meteohub,2013-05-28 15:52:00,
2013-05-28 11:57:00,82.2,41.9,-100.00,South,179,7.0,19.0,24,0.00,,,0.00,439.0,meteohub,2013-05-28 15:57:00,
2013-05-28 12:02:00,82.0,39.4,-100.00,SSE,163,8.0,18.0,22,0.00,,,0.00,469.0,meteohub,2013-05-28 16:02:00,
2013-05-28 12:07:00,82.6,37.4,-100.00,South,177,6.0,18.0,20,0.00,,,0.00,538.0,meteohub,2013-05-28 16:07:00,
2013-05-28 12:12:00,82.9,37.8,-100.00,South,171,10.0,18.0,20,0.00,,,0.00,591.0,meteohub,2013-05-28 16:12:00,
2013-05-28 12:17:00,82.9,39.0,-100.00,SSW,211,9.0,18.0,21,0.00,,,0.00,373.0,meteohub,2013-05-28 16:17:00,
2013-05-28 12:22:00,82.9,37.8,-100.00,SSE,161,12.0,18.0,20,0.00,,,0.00,656.0,meteohub,2013-05-28 16:22:00,
2013-05-28 12:27:00,82.9,37.8,-100.00,South,187,5.0,18.0,20,0.00,,,0.00,677.0,meteohub,2013-05-28 16:27:00,
2013-05-28 12:32:00,83.5,36.9,-100.00,South,184,4.0,18.0,19,0.00,,,0.00,724.0,meteohub,2013-05-28 16:32:00,
2013-05-28 12:37:00,83.5,39.4,-100.00,SE,146,11.0,14.0,21,0.00,,,0.00,752.0,meteohub,2013-05-28 16:37:00,
2013-05-28 12:42:00,83.8,38.5,-100.00,SSE,166,10.0,14.0,20,0.00,,,0.00,742.0,meteohub,2013-05-28 16:42:00,
2013-05-28 12:47:00,83.8,37.2,-100.00,SSE,163,6.0,14.0,19,0.00,,,0.00,761.0,meteohub,2013-05-28 16:47:00,
2013-05-28 12:52:00,83.8,41.0,-100.00,SSW,209,10.0,14.0,22,0.00,,,0.00,612.0,meteohub,2013-05-28 16:52:00,
2013-05-28 12:57:00,83.5,46.9,-100.00,SE,125,11.0,14.0,28,0.00,,,0.00,751.0,meteohub,2013-05-28 16:57:00,
2013-05-28 13:02:00,83.3,47.7,-100.00,SSW,196,14.0,15.0,29,0.00,,,0.00,763.0,meteohub,2013-05-28 17:02:00,
2013-05-28 13:07:00,83.7,47.1,-100.00,South,180,10.0,15.0,28,0.00,,,0.00,756.0,meteohub,2013-05-28 17:07:00,
2013-05-28 13:12:00,83.7,50.7,-100.00,SW,219,9.0,15.0,32,0.00,,,0.00,795.0,meteohub,2013-05-28 17:12:00,
2013-05-28 13:17:00,83.7,54.7,-100.00,East,101,9.0,15.0,37,0.00,,,0.00,765.0,meteohub,2013-05-28 17:17:00,
2013-05-28 13:22:00,83.5,52.9,-100.00,South,178,9.0,15.0,35,0.00,,,0.00,663.0,meteohub,2013-05-28 17:22:00,
2013-05-28 13:27:00,83.5,51.4,-100.00,SSW,194,6.0,13.0,33,0.00,,,0.00,578.0,meteohub,2013-05-28 17:27:00,
2013-05-28 13:32:00,83.5,51.4,-100.00,SE,139,5.0,13.0,33,0.00,,,0.00,561.0,meteohub,2013-05-28 17:32:00,
2013-05-28 13:37:00,83.3,47.7,-100.00,WSW,241,4.0,13.0,29,0.00,,,0.00,570.0,meteohub,2013-05-28 17:37:00,
2013-05-28 13:47:00,84.0,43.3,-100.00,SW,217,4.0,14.0,24,0.00,,,0.00,710.0,meteohub,2013-05-28 17:47:00,
2013-05-28 13:52:00,84.0,44.4,-100.00,South,188,6.0,14.0,25,0.00,,,0.00,455.0,meteohub,2013-05-28 17:52:00,
2013-05-28 13:57:00,84.6,37.8,-100.00,SSE,168,4.0,14.0,19,0.00,,,0.00,339.0,meteohub,2013-05-28 17:57:00,
2013-05-28 14:02:00,84.4,37.6,-100.00,South,182,8.0,14.0,19,0.00,,,0.00,854.0,meteohub,2013-05-28 18:02:00,
2013-05-28 14:07:00,84.2,38.8,-100.00,South,179,12.0,14.0,20,0.00,,,0.00,304.0,meteohub,2013-05-28 18:07:00,
2013-05-28 14:12:00,83.1,28.9,-100.00,South,179,4.0,13.0,14,0.00,,,0.00,306.0,meteohub,2013-05-28 18:12:00,
2013-05-28 14:17:00,82.0,22.3,-100.00,SSW,207,8.0,13.0,11,0.00,,,0.00,334.0,meteohub,2013-05-28 18:17:00,
2013-05-28 14:22:00,81.7,22.1,-100.00,ESE,122,7.0,13.0,11,0.00,,,0.00,294.0,meteohub,2013-05-28 18:22:00,
2013-05-28 14:27:00,81.7,22.1,-100.00,SSE,156,5.0,13.0,11,0.00,,,0.04,483.0,meteohub,2013-05-28 18:27:00,
2013-05-28 14:32:00,81.7,22.1,-100.00,SE,142,7.0,13.0,11,0.00,,,0.04,694.0,meteohub,2013-05-28 18:32:00,
2013-05-28 14:37:00,82.6,22.8,-100.00,SSE,162,10.0,12.0,11,0.04,,,0.04,561.0,meteohub,2013-05-28 18:37:00,
2013-05-28 14:47:00,81.1,21.6,-100.00,SE,146,4.0,12.0,11,0.04,,,0.04,341.0,meteohub,2013-05-28 18:47:00,
2013-05-28 14:52:00,81.3,21.7,-100.00,SSE,155,6.0,12.0,11,0.04,,,0.08,445.0,meteohub,2013-05-28 18:52:00,
2013-05-28 14:57:00,81.5,21.9,-100.00,South,190,4.0,12.0,11,0.04,,,0.08,510.0,meteohub,2013-05-28 18:57:00,
2013-05-28 15:02:00,81.7,24.1,-100.00,SSE,168,8.0,14.0,12,0.08,,,0.08,490.0,meteohub,2013-05-28 19:02:00,
2013-05-28 15:07:00,82.0,26.4,-100.00,South,169,9.0,14.0,13,0.08,,,0.08,538.0,meteohub,2013-05-28 19:07:00,
2013-05-28 15:12:00,82.6,28.6,-100.00,South,181,6.0,14.0,14,0.08,,,0.08,524.0,meteohub,2013-05-28 19:12:00,
2013-05-28 15:22:00,82.6,26.8,-100.00,SSE,153,11.0,14.0,13,0.08,,,0.08,564.0,meteohub,2013-05-28 19:22:00,
2013-05-28 15:27:00,82.9,27.0,-100.00,SE,146,11.0,16.0,13,0.04,,,0.08,554.0,meteohub,2013-05-28 19:27:00,
2013-05-28 15:32:00,82.8,30.4,-100.00,SSW,196,9.0,16.0,15,0.04,,,0.08,568.0,meteohub,2013-05-28 19:32:00,
2013-05-28 15:37:00,82.6,31.8,-100.00,SSW,192,6.0,16.0,16,0.04,,,0.08,490.0,meteohub,2013-05-28 19:37:00,
2013-05-28 15:42:00,82.6,31.8,-100.00,South,185,4.0,16.0,16,0.04,,,0.08,401.0,meteohub,2013-05-28 19:42:00,
2013-05-28 15:47:00,82.8,30.4,-100.00,SW,217,4.0,15.0,15,0.04,,,0.08,309.0,meteohub,2013-05-28 19:47:00,
2013-05-28 15:52:00,82.6,28.6,-100.00,SSW,210,7.0,15.0,14,0.04,,,0.08,302.0,meteohub,2013-05-28 19:52:00,
2013-05-28 15:57:00,81.3,25.7,-100.00,SE,145,3.0,15.0,13,0.04,,,0.08,229.0,meteohub,2013-05-28 19:57:00,
2013-05-28 16:07:00,81.1,23.7,-100.00,SSW,205,9.0,15.0,12,0.00,,,0.08,220.0,meteohub,2013-05-28 20:07:00,
2013-05-28 16:12:00,81.0,23.5,-100.00,SE,145,5.0,10.0,12,0.00,,,0.08,218.0,meteohub,2013-05-28 20:12:00,
2013-05-28 16:17:00,81.0,23.5,-100.00,SW,229,5.0,10.0,12,0.00,,,0.08,267.0,meteohub,2013-05-28 20:17:00,
2013-05-28 16:22:00,81.0,23.5,-100.00,SSW,196,4.0,10.0,12,0.00,,,0.08,269.0,meteohub,2013-05-28 20:22:00,
2013-05-28 16:27:00,81.0,23.5,-100.00,WSW,239,4.0,10.0,12,0.00,,,0.08,149.0,meteohub,2013-05-28 20:27:00,
2013-05-28 16:32:00,81.0,23.5,-100.00,West,260,1.0,10.0,12,0.00,,,0.08,195.0,meteohub,2013-05-28 20:32:00,
2013-05-28 16:37:00,80.8,23.4,-100.00,South,187,1.0,12.0,12,0.00,,,0.08,283.0,meteohub,2013-05-28 20:37:00,
2013-05-28 16:42:00,81.1,23.7,-100.00,SW,217,7.0,12.0,12,0.00,,,0.08,302.0,meteohub,2013-05-28 20:42:00,
2013-05-28 16:47:00,82.0,26.4,-100.00,SE,140,5.0,12.0,13,0.00,,,0.08,309.0,meteohub,2013-05-28 20:47:00,
2013-05-28 16:52:00,82.2,28.2,-100.00,SSE,166,3.0,12.0,14,0.00,,,0.08,265.0,meteohub,2013-05-28 20:52:00,
2013-05-28 16:57:00,82.0,29.8,-100.00,SSW,210,9.0,12.0,15,0.00,,,0.08,174.0,meteohub,2013-05-28 20:57:00,
2013-05-28 17:02:00,81.7,27.9,-100.00,South,185,5.0,16.0,14,0.00,,,0.08,90.0,meteohub,2013-05-28 21:02:00,
2013-05-28 17:07:00,79.7,28.0,-100.00,SSW,198,11.0,16.0,15,0.00,,,0.08,35.0,meteohub,2013-05-28 21:07:00,
2013-05-28 17:12:00,78.3,23.4,-100.00,SSE,167,5.0,16.0,13,0.00,,,0.08,62.0,meteohub,2013-05-28 21:12:00,
2013-05-28 17:17:00,77.4,20.8,-100.00,SE,137,9.0,16.0,12,0.00,,,0.08,67.0,meteohub,2013-05-28 21:17:00,
2013-05-28 17:22:00,77.2,20.7,-100.00,SSE,155,8.0,16.0,12,0.00,,,0.08,51.0,meteohub,2013-05-28 21:22:00,
2013-05-28 17:27:00,76.8,20.3,-100.00,SSE,165,5.0,16.0,12,0.00,,,0.08,62.0,meteohub,2013-05-28 21:27:00,
2013-05-28 17:32:00,76.5,21.9,-100.00,South,172,2.0,16.0,13,0.00,,,0.08,56.0,meteohub,2013-05-28 21:32:00,
2013-05-28 17:37:00,76.6,22.1,-100.00,ESE,123,3.0,16.0,13,0.00,,,0.08,56.0,meteohub,2013-05-28 21:37:00,
2013-05-28 17:42:00,76.5,21.9,-100.00,SW,219,5.0,16.0,13,0.00,,,0.09,56.0,meteohub,2013-05-28 21:42:00,
2013-05-28 17:47:00,76.6,22.1,-100.00,SSW,192,7.0,11.0,13,0.01,,,0.09,51.0,meteohub,2013-05-28 21:47:00,
2013-05-28 17:52:00,76.5,21.9,-100.00,SSE,156,4.0,11.0,13,0.01,,,0.09,53.0,meteohub,2013-05-28 21:52:00,
2013-05-28 17:57:00,76.5,21.9,-100.00,SSE,155,0.0,11.0,13,0.01,,,0.11,62.0,meteohub,2013-05-28 21:57:00,
2013-05-28 18:02:00,76.5,21.9,-100.00,South,182,0.0,11.0,13,0.01,,,0.11,67.0,meteohub,2013-05-28 22:02:00,
2013-05-28 18:07:00,76.5,21.9,-100.00,South,190,0.0,11.0,13,0.03,,,0.11,70.0,meteohub,2013-05-28 22:07:00,
2013-05-28 18:12:00,76.5,21.9,-100.00,South,188,3.0,8.0,13,0.03,,,0.11,70.0,meteohub,2013-05-28 22:12:00,
2013-05-28 18:17:00,76.5,21.9,-100.00,SSE,147,0.0,8.0,13,0.03,,,0.11,69.0,meteohub,2013-05-28 22:17:00,
2013-05-28 18:22:00,76.6,22.1,-100.00,SSE,153,5.0,8.0,13,0.03,,,0.11,67.0,meteohub,2013-05-28 22:22:00,
2013-05-28 18:27:00,77.0,20.5,-100.00,SSE,152,0.0,8.0,12,0.03,,,0.11,65.0,meteohub,2013-05-28 22:27:00,
2013-05-28 18:32:00,77.4,20.8,-100.00,South,178,0.0,8.0,12,0.03,,,0.11,65.0,meteohub,2013-05-28 22:32:00,
2013-05-28 18:42:00,77.7,21.0,-100.00,SSE,160,1.0,6.0,12,0.02,,,0.11,54.0,meteohub,2013-05-28 22:42:00,
2013-05-28 18:47:00,78.3,21.6,-100.00,SSE,160,2.0,6.0,12,0.02,,,0.11,47.0,meteohub,2013-05-28 22:47:00,
2013-05-28 18:52:00,78.4,21.6,-100.00,South,188,3.0,6.0,12,0.02,,,0.11,42.0,meteohub,2013-05-28 22:52:00,
2013-05-28 18:57:00,78.3,21.6,-100.00,SE,126,7.0,7.0,12,0.02,,,0.11,39.0,meteohub,2013-05-28 22:57:00,
2013-05-28 19:02:00,78.1,23.2,-100.00,SSW,192,6.0,6.0,13,0.02,,,0.11,37.0,meteohub,2013-05-28 23:02:00,
2013-05-28 19:07:00,78.1,21.4,-100.00,SSE,167,2.0,6.0,12,0.02,,,0.11,30.0,meteohub,2013-05-28 23:07:00,
2013-05-28 19:12:00,78.1,21.4,-100.00,South,187,4.0,6.0,12,0.00,,,0.11,28.0,meteohub,2013-05-28 23:12:00,
2013-05-28 19:22:00,77.7,21.0,-100.00,South,173,2.0,10.0,12,0.00,,,0.11,19.0,meteohub,2013-05-28 23:22:00,
2013-05-28 19:27:00,77.7,21.0,-100.00,South,186,3.0,10.0,12,0.00,,,0.11,16.0,meteohub,2013-05-28 23:27:00,
2013-05-28 19:32:00,78.1,21.4,-100.00,SSE,162,3.0,10.0,12,0.00,,,0.11,14.0,meteohub,2013-05-28 23:32:00,
2013-05-28 19:37:00,78.1,21.4,-100.00,SSW,213,7.0,9.0,12,0.00,,,0.11,12.0,meteohub,2013-05-28 23:37:00,
2013-05-28 19:42:00,78.3,21.6,-100.00,South,171,9.0,9.0,12,0.00,,,0.11,9.0,meteohub,2013-05-28 23:42:00,
2013-05-28 19:47:00,78.3,21.6,-100.00,South,190,7.0,9.0,12,0.00,,,0.11,7.0,meteohub,2013-05-28 23:47:00,
2013-05-28 19:52:00,78.4,21.6,-100.00,SSE,148,5.0,9.0,12,0.00,,,0.11,5.0,meteohub,2013-05-28 23:52:00,
2013-05-28 19:57:00,78.6,21.7,-100.00,South,176,1.0,9.0,12,0.00,,,0.11,7.0,meteohub,2013-05-28 23:57:00,
2013-05-28 20:02:00,78.6,21.7,-100.00,SSW,200,3.0,10.0,12,0.00,,,0.11,5.0,meteohub,2013-05-29 00:02:00,
2013-05-28 20:07:00,78.6,21.7,-100.00,SSE,153,7.0,10.0,12,0.00,,,0.11,5.0,meteohub,2013-05-29 00:07:00,
2013-05-28 20:12:00,78.6,21.7,-100.00,SSE,162,3.0,10.0,12,0.00,,,0.11,0.0,meteohub,2013-05-29 00:12:00,
2013-05-28 20:17:00,78.8,21.9,-100.00,SSW,192,6.0,10.0,12,0.00,,,0.00,0.0,meteohub,2013-05-29 00:17:00,
2013-05-28 20:22:00,79.2,22.1,-100.00,South,182,4.0,10.0,12,0.00,,,0.00,0.0,meteohub,2013-05-29 00:22:00,
2013-05-28 20:27:00,79.2,24.1,-100.00,SW,221,7.0,11.0,13,0.00,,,0.00,0.0,meteohub,2013-05-29 00:27:00,
2013-05-28 20:32:00,79.2,24.1,-100.00,SSE,152,3.0,11.0,13,0.00,,,0.00,0.0,meteohub,2013-05-29 00:32:00,
2013-05-28 20:37:00,79.2,24.1,-100.00,SSW,193,7.0,11.0,13,0.00,,,0.00,0.0,meteohub,2013-05-29 00:37:00,
2013-05-28 20:42:00,79.2,24.1,-100.00,SSW,200,5.0,11.0,13,0.00,,,0.00,0.0,meteohub,2013-05-29 00:42:00,
2013-05-28 20:47:00,79.3,24.3,-100.00,South,185,4.0,13.0,13,0.00,,,0.00,0.0,meteohub,2013-05-29 00:47:00,
2013-05-28 20:52:00,79.5,24.4,-100.00,South,178,1.0,13.0,13,0.00,,,0.00,0.0,meteohub,2013-05-29 00:52:00,
2013-05-28 20:57:00,79.3,24.3,-100.00,SSW,205,6.0,13.0,13,0.00,,,0.00,0.0,meteohub,2013-05-29 00:57:00,
2013-05-28 21:02:00,79.3,24.3,-100.00,SSE,163,10.0,13.0,13,0.00,,,0.00,0.0,meteohub,2013-05-29 01:02:00,
2013-05-28 21:07:00,79.5,24.4,-100.00,South,189,5.0,13.0,13,0.00,,,0.00,0.0,meteohub,2013-05-29 01:07:00,
2013-05-28 21:12:00,79.5,24.4,-100.00,SSW,192,8.0,13.0,13,0.00,,,0.00,0.0,meteohub,2013-05-29 01:12:00,
2013-05-28 21:17:00,79.7,24.4,-100.00,SSE,160,3.0,14.0,13,0.00,,,0.00,0.0,meteohub,2013-05-29 01:17:00,
2013-05-28 21:22:00,79.5,22.5,-100.00,South,180,7.0,14.0,12,0.00,,,0.00,0.0,meteohub,2013-05-29 01:22:00,
2013-05-28 21:27:00,79.5,22.5,-100.00,SSE,150,5.0,14.0,12,0.00,,,0.00,0.0,meteohub,2013-05-29 01:27:00,
2013-05-28 21:32:00,79.5,22.5,-100.00,South,183,5.0,14.0,12,0.00,,,0.00,0.0,meteohub,2013-05-29 01:32:00,
2013-05-28 21:37:00,79.5,22.5,-100.00,SSW,200,6.0,14.0,12,0.00,,,0.00,0.0,meteohub,2013-05-29 01:37:00,
2013-05-28 21:42:00,79.5,22.5,-100.00,SSW,199,10.0,12.0,12,0.00,,,0.00,0.0,meteohub,2013-05-29 01:42:00,
2013-05-28 21:47:00,79.5,22.5,-100.00,SSE,150,6.0,12.0,12,0.00,,,0.00,0.0,meteohub,2013-05-29 01:47:00,
2013-05-28 21:52:00,79.7,24.4,-100.00,South,175,9.0,12.0,13,0.00,,,0.00,0.0,meteohub,2013-05-29 01:52:00,
2013-05-28 21:57:00,79.7,24.4,-100.00,SSW,198,11.0,12.0,13,0.00,,,0.00,0.0,meteohub,2013-05-29 01:57:00,
2013-05-28 22:02:00,79.7,24.4,-100.00,South,175,3.0,12.0,13,0.00,,,0.00,0.0,meteohub,2013-05-29 02:02:00,
2013-05-28 22:07:00,79.7,24.4,-100.00,South,178,6.0,15.0,13,0.00,,,0.00,0.0,meteohub,2013-05-29 02:07:00,
2013-05-28 22:12:00,79.7,24.4,-100.00,SE,145,5.0,15.0,13,0.00,,,0.00,0.0,meteohub,2013-05-29 02:12:00,
2013-05-28 22:17:00,79.9,26.4,-100.00,South,186,9.0,15.0,14,0.00,,,0.00,0.0,meteohub,2013-05-29 02:17:00,
2013-05-28 22:22:00,80.1,26.6,-100.00,South,186,11.0,15.0,14,0.00,,,0.00,0.0,meteohub,2013-05-29 02:22:00,
2013-05-28 22:27:00,79.9,26.4,-100.00,ESE,119,6.0,13.0,14,0.00,,,0.00,0.0,meteohub,2013-05-29 02:27:00,
2013-05-28 22:32:00,79.9,26.4,-100.00,South,182,8.0,13.0,14,0.00,,,0.00,0.0,meteohub,2013-05-29 02:32:00,
2013-05-28 22:37:00,80.1,26.6,-100.00,South,182,3.0,13.0,14,0.00,,,0.00,0.0,meteohub,2013-05-29 02:37:00,
2013-05-28 22:42:00,79.7,26.2,-100.00,WSW,243,6.0,13.0,14,0.00,,,0.00,0.0,meteohub,2013-05-29 02:42:00,
2013-05-28 22:47:00,79.5,26.1,-100.00,South,191,5.0,13.0,14,0.00,,,0.00,0.0,meteohub,2013-05-29 02:47:00,
2013-05-28 22:52:00,79.7,26.2,-100.00,SSW,207,7.0,14.0,14,0.00,,,0.00,0.0,meteohub,2013-05-29 02:52:00,
2013-05-28 22:57:00,79.9,26.4,-100.00,SE,144,6.0,14.0,14,0.00,,,0.00,0.0,meteohub,2013-05-29 02:57:00,
2013-05-28 23:02:00,79.9,28.0,-100.00,SSE,166,9.0,14.0,15,0.00,,,0.00,0.0,meteohub,2013-05-29 03:02:00,
2013-05-28 23:07:00,79.9,26.4,-100.00,SSW,203,7.0,14.0,14,0.00,,,0.00,0.0,meteohub,2013-05-29 03:07:00,
2013-05-28 23:12:00,79.9,26.4,-100.00,SSW,207,6.0,14.0,14,0.00,,,0.00,0.0,meteohub,2013-05-29 03:12:00,
2013-05-28 23:17:00,79.9,26.4,-100.00,South,186,7.0,14.0,14,0.00,,,0.00,0.0,meteohub,2013-05-29 03:17:00,
2013-05-28 23:22:00,80.1,26.6,-100.00,SSW,205,10.0,14.0,14,0.00,,,0.00,0.0,meteohub,2013-05-29 03:22:00,
2013-05-28 23:27:00,79.9,24.6,-100.00,SW,218,5.0,14.0,13,0.00,,,0.00,0.0,meteohub,2013-05-29 03:27:00,
2013-05-28 23:32:00,79.9,24.6,-100.00,SSE,156,7.0,14.0,13,0.00,,,0.00,0.0,meteohub,2013-05-29 03:32:00,
2013-05-28 23:37:00,79.7,24.4,-100.00,SW,217,9.0,14.0,13,0.00,,,0.00,0.0,meteohub,2013-05-29 03:37:00,
2013-05-28 23:42:00,79.5,24.4,-100.00,SSE,163,6.0,14.0,13,0.00,,,0.00,0.0,meteohub,2013-05-29 03:42:00,
2013-05-28 23:47:00,79.9,24.6,-100.00,South,187,8.0,14.0,13,0.00,,,0.00,0.0,meteohub,2013-05-29 03:47:00,
2013-05-28 23:52:00,79.7,24.4,-100.00,SSE,159,10.0,14.0,13,0.00,,,0.00,0.0,meteohub,2013-05-29 03:52:00,
2013-05-28 23:57:00,79.9,24.6,-100.00,South,176,7.0,14.0,13,0.00,,,0.00,0.0,meteohub,2013-05-29 03:57:00,